Time;durP1;ratioP1;P1;durP2;ratioP2;P2;SDS_P1;SDS_P2;PMS_P1;PMS_P2;Temp;Humidity;BMP_temperature;BMP_pressure;BME280_temperature;BME280_humidity;BME280_pressure;Samples;Min_cycle;Max_cycle;Signal;HPM_P1;HPM_P2
2022/05/14 00:02:13;;;;;;;10.60;2.95;;;;;;;22.98;39.32;101317.94;4968011;28;20094;-81
2022/05/14 00:04:42;;;;;;;6.68;2.50;;;;;;;22.88;39.11;101293.06;4970005;28;20587;-82
2022/05/14 00:07:09;;;;;;;8.52;2.30;;;;;;;23.08;39.24;101331.09;4970330;28;20397;-82
2022/05/14 00:09:36;;;;;;;3.80;2.60;;;;;;;23.05;39.66;101326.09;4970671;28;20058;-82
2022/05/14 00:14:48;;;;;;;4.82;2.92;;;;;;;22.86;39.30;101284.31;4971709;28;20051;-84
2022/05/14 00:17:15;;;;;;;5.15;2.60;;;;;;;22.61;39.12;101238.00;4986598;28;20055;-81
2022/05/14 00:19:41;;;;;;;4.28;2.42;;;;;;;22.95;39.18;101293.94;4970606;28;20050;-82
2022/05/14 00:22:08;;;;;;;5.13;2.25;;;;;;;22.90;39.45;101295.59;4970661;28;20560;-83
2022/05/14 00:24:35;;;;;;;4.10;2.38;;;;;;;22.53;39.38;101249.81;4977065;28;20058;-83
2022/05/14 00:27:02;;;;;;;4.70;2.38;;;;;;;22.76;39.55;101294.69;4983192;28;20251;-82
2022/05/14 00:29:30;;;;;;;3.88;2.22;;;;;;;22.67;39.33;101269.69;4985429;28;20418;-82
2022/05/14 00:31:57;;;;;;;4.60;2.55;;;;;;;22.76;39.51;101300.09;4972573;28;20066;-83
2022/05/14 00:34:24;;;;;;;6.53;2.80;;;;;;;22.90;39.50;101315.38;4971676;28;20113;-83
2022/05/14 00:36:50;;;;;;;3.42;2.58;;;;;;;22.74;39.43;101303.00;4970086;28;20559;-82
2022/05/14 00:39:17;;;;;;;6.60;2.90;;;;;;;22.33;39.71;101240.72;4969820;28;20055;-83
2022/05/14 00:41:48;;;;;;;6.50;2.83;;;;;;;22.78;39.37;101306.97;4969694;28;20295;-82
2022/05/14 00:44:15;;;;;;;4.45;2.65;;;;;;;22.71;39.56;101308.81;4969741;28;20122;-82
2022/05/14 00:47:14;;;;;;;6.45;2.60;;;;;;;22.81;39.75;101328.22;4969849;28;20054;-80
2022/05/14 00:49:42;;;;;;;8.80;2.70;;;;;;;22.47;39.69;101268.72;4968403;28;20146;-81
2022/05/14 00:52:19;;;;;;;8.77;2.50;;;;;;;22.79;39.69;101334.88;4966241;28;20059;-81
2022/05/14 00:55:00;;;;;;;8.40;2.65;;;;;;;22.71;39.86;101325.06;4951177;28;20062;-81
2022/05/14 00:57:34;;;;;;;7.55;3.25;;;;;;;22.74;40.01;101345.47;4966069;28;20524;-81
2022/05/14 01:00:09;;;;;;;3.28;2.08;;;;;;;22.10;40.00;101257.19;4950111;29;20447;-81
2022/05/14 01:02:35;;;;;;;6.82;2.55;;;;;;;22.66;40.05;101349.16;4965696;28;20118;-81
2022/05/14 01:05:03;;;;;;;4.90;2.83;;;;;;;22.19;40.27;101280.34;4950007;29;20176;-82
2022/05/14 01:07:31;;;;;;;8.98;2.88;;;;;;;22.59;40.58;101342.88;4950017;29;20102;-82
2022/05/14 01:10:01;;;;;;;6.93;3.08;;;;;;;21.19;41.47;101130.88;4965918;28;20234;-82
2022/05/14 01:12:31;;;;;;;4.63;2.60;;;;;;;22.48;41.82;101359.66;4949646;28;20535;-82
2022/05/14 01:15:11;;;;;;;7.78;2.88;;;;;;;22.40;43.47;101374.16;4949424;29;20122;-81
2022/05/14 01:17:38;;;;;;;6.97;3.38;;;;;;;21.68;43.39;101270.56;4949606;29;20205;-81
2022/05/14 01:20:06;;;;;;;5.45;2.67;;;;;;;21.77;43.63;101304.53;4949573;29;20102;-82
2022/05/14 01:22:49;;;;;;;5.85;2.90;;;;;;;21.88;44.32;101334.78;4965479;28;20481;-82
2022/05/14 01:28:38;;;;;;;6.95;3.30;;;;;;;22.14;44.23;101353.13;4949282;28;20070;-81
2022/05/14 01:31:05;;;;;;;11.75;3.38;;;;;;;21.75;44.71;101324.69;4948930;29;20102;-82
2022/05/14 01:33:34;;;;;;;11.93;3.20;;;;;;;21.91;45.01;101372.22;4950826;28;20082;-83
2022/05/14 01:36:04;;;;;;;6.53;3.38;;;;;;;21.83;45.54;101373.19;4951136;29;20188;-82
2022/05/14 01:38:32;;;;;;;7.50;3.33;;;;;;;21.38;45.71;101326.50;4949719;29;20071;-82
2022/05/14 01:41:00;;;;;;;10.50;3.22;;;;;;;21.49;46.18;101374.69;4950834;29;20047;-82
2022/05/14 01:43:27;;;;;;;3.92;2.75;;;;;;;21.11;46.31;101323.50;4950507;29;20118;-82
2022/05/14 01:45:53;;;;;;;7.63;3.38;;;;;;;21.36;46.53;101374.50;4949555;29;20126;-84
2022/05/14 01:48:20;;;;;;;5.38;3.25;;;;;;;21.41;46.40;101372.09;4949541;29;20055;-84
2022/05/14 01:50:47;;;;;;;7.68;3.08;;;;;;;21.42;46.19;101378.34;4950787;28;20557;-82
2022/05/14 01:53:14;;;;;;;7.05;3.88;;;;;;;20.87;46.08;101289.53;4950328;29;20091;-82
2022/05/14 01:55:40;;;;;;;7.30;3.35;;;;;;;21.44;46.10;101374.41;4949536;29;20122;-82
2022/05/14 02:00:55;;;;;;;4.82;2.78;;;;;;;20.47;47.03;101247.69;4951543;29;20047;-83
2022/05/14 02:03:22;;;;;;;7.78;3.03;;;;;;;20.73;47.34;101303.91;4965409;28;20106;-83
2022/05/14 02:05:49;;;;;;;6.72;3.05;;;;;;;20.65;47.64;101314.78;4949253;29;20048;-81
2022/05/14 02:08:15;;;;;;;7.32;3.00;;;;;;;20.81;47.92;101352.38;4950697;29;20056;-81
2022/05/14 02:10:42;;;;;;;7.97;2.80;;;;;;;20.61;48.02;101325.13;4964662;28;20478;-82
2022/05/14 02:13:10;;;;;;;6.70;3.25;;;;;;;20.38;48.03;101273.06;4948453;29;20051;-83
2022/05/14 02:15:37;;;;;;;8.85;3.15;;;;;;;21.07;46.97;101375.38;4948544;29;20429;-83
2022/05/14 02:18:04;;;;;;;5.72;2.83;;;;;;;20.66;46.37;101308.38;4949534;29;20482;-83
2022/05/14 02:20:30;;;;;;;7.07;2.92;;;;;;;21.21;46.24;101392.56;4948899;28;20598;-83
2022/05/14 02:22:57;;;;;;;5.20;2.85;;;;;;;20.92;45.74;101353.75;4949259;28;20079;-82
2022/05/14 02:25:23;;;;;;;8.68;2.95;;;;;;;21.11;46.83;101384.75;4947637;28;20491;-83
2022/05/14 02:27:50;;;;;;;5.78;3.10;;;;;;;21.02;47.18;101364.28;4947929;29;20570;-82
2022/05/14 02:30:16;;;;;;;5.80;2.90;;;;;;;21.23;47.10;101385.13;4948077;29;20522;-82
2022/05/14 02:32:43;;;;;;;10.38;3.08;;;;;;;21.07;47.09;101360.00;4948574;29;20055;-82
2022/05/14 02:35:10;;;;;;;11.55;3.17;;;;;;;21.13;46.83;101372.75;4948949;29;20071;-83
2022/05/14 02:37:37;;;;;;;6.40;2.80;;;;;;;20.85;46.48;101337.50;4947956;29;20519;-82
2022/05/14 02:40:07;;;;;;;7.47;2.63;;;;;;;21.03;45.54;101364.09;4949614;28;20059;-81
2022/05/14 02:42:34;;;;;;;8.15;2.70;;;;;;;20.84;45.44;101343.06;4949151;28;20047;-82
2022/05/14 02:45:00;;;;;;;4.53;2.88;;;;;;;20.99;45.46;101362.78;4949497;29;20214;-82
2022/05/14 02:47:27;;;;;;;10.38;3.10;;;;;;;20.94;45.50;101358.97;4949388;28;20461;-82
2022/05/14 02:49:54;;;;;;;5.63;2.70;;;;;;;20.96;45.73;101363.16;4947880;29;20150;-82
2022/05/14 02:52:20;;;;;;;4.90;3.28;;;;;;;20.85;45.71;101329.41;4953819;28;20502;-81
2022/05/14 02:54:47;;;;;;;5.72;2.95;;;;;;;20.87;45.80;101334.59;4968249;28;20078;-82
2022/05/14 02:57:13;;;;;;;3.92;2.88;;;;;;;20.10;46.03;101205.44;4967109;28;20444;-83
2022/05/14 02:59:40;;;;;;;4.90;2.88;;;;;;;21.10;46.11;101359.63;4968561;28;20128;-82
2022/05/14 03:02:07;;;;;;;5.85;2.38;;;;;;;19.80;46.28;101168.50;4966790;28;20109;-82
2022/05/14 03:04:37;;;;;;;8.65;2.90;;;;;;;21.11;46.53;101371.25;4983597;28;20142;-81
2022/05/14 03:07:09;;;;;;;5.50;3.05;;;;;;;21.20;46.17;101380.09;4983119;28;20717;-83
2022/05/14 03:09:37;;;;;;;5.30;3.08;;;;;;;21.00;46.15;101337.47;4968508;28;20062;-82
2022/05/14 03:12:07;;;;;;;8.52;3.30;;;;;;;20.59;46.38;101289.38;4966596;28;20055;-82
2022/05/14 03:14:37;;;;;;;6.35;3.30;;;;;;;20.61;46.76;101292.75;4982720;28;20043;-82
2022/05/14 03:17:07;;;;;;;6.82;3.15;;;;;;;20.99;46.35;101360.09;4982784;28;20441;-81
2022/05/14 03:19:34;;;;;;;6.00;2.95;;;;;;;20.84;46.50;101349.28;4966525;28;20128;-82
2022/05/14 03:22:03;;;;;;;5.20;2.80;;;;;;;20.70;46.59;101334.78;4968108;28;20215;-82
2022/05/14 03:24:29;;;;;;;9.30;3.45;;;;;;;20.63;46.64;101316.81;4968075;28;20042;-83
2022/05/14 03:26:56;;;;;;;5.10;2.67;;;;;;;21.02;46.38;101373.22;4966726;28;20070;-81
2022/05/14 03:29:22;;;;;;;7.00;3.03;;;;;;;21.03;46.05;101369.50;4966381;28;20089;-82
2022/05/14 03:31:49;;;;;;;3.47;2.75;;;;;;;20.86;46.09;101354.50;4967955;28;20054;-81
2022/05/14 03:34:17;;;;;;;5.65;2.80;;;;;;;20.39;46.07;101288.22;4968143;28;20477;-81
2022/05/14 03:36:43;;;;;;;9.90;2.80;;;;;;;20.92;46.10;101381.59;4965919;28;20062;-80
2022/05/14 03:39:10;;;;;;;7.30;2.97;;;;;;;19.40;45.64;101130.16;4966574;28;20054;-83
2022/05/14 03:41:37;;;;;;;10.80;3.17;;;;;;;20.91;45.83;101387.19;4967977;28;20161;-81
2022/05/14 03:44:04;;;;;;;5.60;3.53;;;;;;;20.83;45.76;101376.47;4966242;28;20054;-82
2022/05/14 03:46:31;;;;;;;6.97;3.28;;;;;;;20.55;45.63;101339.31;4966329;28;20465;-82
2022/05/14 03:48:57;;;;;;;8.35;3.33;;;;;;;20.58;45.81;101349.72;4967465;28;20471;-82
2022/05/14 03:51:24;;;;;;;11.30;3.17;;;;;;;20.04;45.68;101267.13;4968042;28;20047;-83
2022/05/14 03:53:51;;;;;;;4.20;3.17;;;;;;;20.96;45.15;101395.56;4967042;28;20047;-81
2022/05/14 03:56:17;;;;;;;8.77;3.17;;;;;;;20.60;44.97;101336.91;4966081;28;20050;-81
2022/05/14 03:58:46;;;;;;;4.57;2.85;;;;;;;21.03;44.50;101392.97;4965152;28;20050;-82
2022/05/14 04:01:13;;;;;;;4.63;2.92;;;;;;;21.09;44.01;101392.19;4965069;28;20560;-82
2022/05/14 04:03:40;;;;;;;6.38;2.55;;;;;;;20.88;43.68;101355.19;4960863;28;20059;-81
2022/05/14 04:06:07;;;;;;;4.43;3.17;;;;;;;20.96;43.30;101368.56;4961711;28;20549;-82
2022/05/14 04:08:53;;;;;;;8.88;3.30;;;;;;;20.98;44.13;101392.69;4947468;28;20569;-82
2022/05/14 04:11:19;;;;;;;7.43;2.45;;;;;;;20.85;44.13;101399.56;4946346;29;20055;-82
2022/05/14 04:13:47;;;;;;;7.38;3.13;;;;;;;20.86;44.69;101408.50;4947733;28;20422;-82
2022/05/14 04:16:14;;;;;;;4.50;2.75;;;;;;;20.59;44.83;101362.22;4948134;28;20137;-82
2022/05/14 04:18:41;;;;;;;3.60;2.45;;;;;;;20.86;44.02;101400.38;4947554;29;20061;-82
2022/05/14 04:21:08;;;;;;;6.38;2.80;;;;;;;20.82;43.67;101393.69;4947099;28;20052;-83
2022/05/14 04:23:35;;;;;;;7.53;3.13;;;;;;;20.42;43.67;101328.31;4945534;29;20134;-83
2022/05/14 04:26:02;;;;;;;7.07;3.22;;;;;;;20.45;43.84;101333.31;4945780;29;20063;-82
2022/05/14 04:28:29;;;;;;;6.35;2.85;;;;;;;20.95;43.27;101415.47;4946452;28;20087;-83
2022/05/14 04:30:56;;;;;;;6.72;3.25;;;;;;;20.88;44.04;101414.53;4944281;29;20055;-82
2022/05/14 04:33:26;;;;;;;5.40;3.00;;;;;;;20.84;43.89;101408.66;4960574;28;20395;-84
2022/05/14 04:35:54;;;;;;;13.70;3.08;;;;;;;20.61;44.38;101384.47;4944106;28;20102;-83
2022/05/14 04:38:21;;;;;;;8.27;3.25;;;;;;;20.25;44.32;101330.31;4945067;29;20074;-81
2022/05/14 04:40:48;;;;;;;7.63;3.13;;;;;;;20.61;44.17;101395.25;4945338;28;20303;-83
2022/05/14 04:43:15;;;;;;;5.43;2.72;;;;;;;20.82;43.89;101426.06;4944650;28;21024;-82
2022/05/14 04:45:43;;;;;;;5.32;3.03;;;;;;;20.17;43.89;101306.97;4944090;29;20056;-83
2022/05/14 04:48:11;;;;;;;6.13;3.10;;;;;;;20.96;44.02;101422.53;4947280;28;20449;-83
2022/05/14 04:50:38;;;;;;;7.10;2.65;;;;;;;20.78;44.99;101412.13;4952474;29;20531;-82
2022/05/14 04:53:05;;;;;;;6.53;3.22;;;;;;;20.85;45.08;101421.16;4970858;28;20051;-82
2022/05/14 04:55:32;;;;;;;6.95;3.08;;;;;;;20.73;44.41;101400.19;4984937;28;20082;-82
2022/05/14 04:57:59;;;;;;;8.10;3.25;;;;;;;20.66;45.66;101382.03;4973654;28;20062;-84
2022/05/14 05:00:26;;;;;;;5.80;2.95;;;;;;;20.56;44.34;101368.00;4968030;28;20121;-83
2022/05/14 05:05:38;;;;;;;5.53;2.53;;;;;;;21.15;43.02;101439.22;4968392;28;20279;-83
2022/05/14 05:08:05;;;;;;;6.22;3.33;;;;;;;20.99;44.01;101415.94;4967442;28;20115;-82
2022/05/14 05:10:32;;;;;;;9.55;3.40;;;;;;;21.01;44.54;101416.59;4951842;28;20058;-82
2022/05/14 05:12:59;;;;;;;5.07;2.97;;;;;;;20.63;43.64;101352.75;4947548;29;20114;-82
2022/05/14 05:15:25;;;;;;;7.22;3.85;;;;;;;21.10;43.53;101416.31;4948811;28;20414;-82
2022/05/14 05:17:52;;;;;;;7.50;3.47;;;;;;;21.27;44.65;101443.13;4947685;28;20059;-82
2022/05/14 05:20:19;;;;;;;9.57;3.13;;;;;;;21.02;45.52;101416.41;4963726;28;20506;-81
2022/05/14 05:22:48;;;;;;;3.80;2.75;;;;;;;21.24;45.44;101462.38;4963630;28;20058;-83
2022/05/14 05:25:14;;;;;;;9.23;2.90;;;;;;;21.21;45.58;101460.06;4947217;29;20051;-82
2022/05/14 05:27:42;;;;;;;6.55;2.80;;;;;;;21.31;45.13;101457.94;4947575;29;20517;-81
2022/05/14 05:30:09;;;;;;;8.20;3.45;;;;;;;21.32;44.74;101471.25;4948727;28;20469;-82
2022/05/14 05:32:36;;;;;;;7.57;2.97;;;;;;;21.37;45.13;101459.91;4948731;28;20141;-82
2022/05/14 05:35:05;;;;;;;6.28;2.92;;;;;;;21.39;43.96;101449.78;4947475;29;20431;-83
2022/05/14 05:37:32;;;;;;;6.55;3.10;;;;;;;20.60;44.07;101319.88;4948382;28;20051;-83
2022/05/14 05:39:59;;;;;;;8.55;3.28;;;;;;;21.40;44.53;101456.84;4948667;28;20109;-83
2022/05/14 05:42:26;;;;;;;9.52;3.35;;;;;;;20.79;44.31;101365.22;4948070;28;20422;-83
2022/05/14 05:44:53;;;;;;;7.78;3.17;;;;;;;21.17;43.83;101412.88;4946282;29;20059;-82
2022/05/14 05:47:19;;;;;;;6.88;2.90;;;;;;;20.60;43.87;101301.00;4946998;29;20051;-82
2022/05/14 05:49:49;;;;;;;7.82;3.20;;;;;;;21.02;43.42;101357.03;4947372;28;20097;-82
2022/05/14 05:52:16;;;;;;;8.93;3.42;;;;;;;21.53;44.10;101435.41;4951498;28;21087;-82
2022/05/14 05:57:36;;;;;;;3.17;2.88;;;;;;;21.72;43.65;101449.34;4967754;28;20113;-81
2022/05/14 06:00:09;;;;;;;10.35;3.05;;;;;;;21.86;43.66;101456.59;4965468;28;20050;-82
2022/05/14 06:02:35;;;;;;;9.13;3.45;;;;;;;21.13;43.69;101337.66;4966521;28;20232;-82
2022/05/14 06:05:04;;;;;;;5.68;3.03;;;;;;;22.13;43.33;101489.34;4965993;28;20075;-82
2022/05/14 06:07:34;;;;;;;6.55;2.78;;;;;;;21.68;42.83;101400.25;4967848;28;20059;-82
2022/05/14 06:10:03;;;;;;;6.88;2.83;;;;;;;22.23;42.80;101476.38;4966100;28;20051;-82
2022/05/14 06:12:38;;;;;;;6.30;3.25;;;;;;;22.39;42.91;101478.81;4966217;28;20050;-82
2022/05/14 06:15:11;;;;;;;16.38;3.15;;;;;;;22.23;43.25;101460.13;4982041;28;20062;-82
2022/05/14 06:17:39;;;;;;;5.22;2.80;;;;;;;21.76;43.53;101385.78;4966326;28;20483;-82
2022/05/14 06:20:09;;;;;;;6.80;3.08;;;;;;;22.17;44.06;101452.78;4966915;28;20058;-82
2022/05/14 06:22:36;;;;;;;13.38;3.95;;;;;;;22.53;42.32;101489.78;4982373;28;20578;-82
2022/05/14 06:25:04;;;;;;;6.45;2.85;;;;;;;22.64;42.40;101478.44;4947459;28;20109;-82
2022/05/14 06:27:30;;;;;;;6.38;3.13;;;;;;;22.49;41.91;101440.63;4946740;29;20527;-82
2022/05/14 06:29:57;;;;;;;13.00;4.10;;;;;;;22.61;42.03;101476.13;4948168;28;20270;-83
2022/05/14 06:32:24;;;;;;;5.95;3.53;;;;;;;22.61;42.28;101487.78;4962540;28;20072;-82
2022/05/14 06:34:51;;;;;;;10.85;4.13;;;;;;;21.60;41.98;101310.38;4946637;29;20107;-82
2022/05/14 06:37:18;;;;;;;6.53;3.30;;;;;;;22.58;42.47;101481.94;4946694;29;20047;-82
2022/05/14 06:39:44;;;;;;;6.20;3.67;;;;;;;22.71;42.63;101492.03;4948228;28;20822;-83
2022/05/14 06:42:11;;;;;;;6.50;3.42;;;;;;;22.72;42.68;101494.53;4962756;28;20085;-82
2022/05/14 06:44:39;;;;;;;5.93;3.33;;;;;;;22.55;42.97;101468.75;4946290;29;20118;-82
2022/05/14 06:47:06;;;;;;;6.97;3.47;;;;;;;22.23;43.38;101414.16;4948864;28;20055;-81
2022/05/14 06:49:36;;;;;;;9.95;4.50;;;;;;;22.54;43.27;101445.47;4946748;29;20117;-82
2022/05/14 06:52:05;;;;;;;5.35;3.80;;;;;;;22.01;43.10;101356.50;4949286;28;20417;-82
2022/05/14 06:54:36;;;;;;;7.75;3.67;;;;;;;22.79;43.25;101479.19;4966432;28;20043;-82
2022/05/14 06:57:04;;;;;;;8.80;4.00;;;;;;;22.63;44.27;101470.53;4966831;28;20059;-82
2022/05/14 06:59:32;;;;;;;7.30;4.43;;;;;;;22.58;44.46;101454.88;4967935;28;20043;-83
2022/05/14 07:02:04;;;;;;;6.63;3.83;;;;;;;22.75;44.98;101494.16;4966194;28;20062;-83
2022/05/14 07:07:18;;;;;;;10.10;4.40;;;;;;;22.66;45.45;101456.59;4948014;29;20043;-82
2022/05/14 07:09:44;;;;;;;7.93;4.18;;;;;;;22.80;45.41;101475.44;4945834;29;20107;-82
2022/05/14 07:12:15;;;;;;;12.13;4.47;;;;;;;21.77;44.88;101273.97;4945012;28;20043;-83
2022/05/14 07:14:43;;;;;;;7.55;4.57;;;;;;;22.83;45.33;101464.22;4947540;28;20057;-82
2022/05/14 07:17:11;;;;;;;9.32;5.00;;;;;;;23.06;44.63;101470.44;4945264;28;20042;-81
2022/05/14 07:19:38;;;;;;;8.13;4.38;;;;;;;23.10;45.23;101496.94;4947252;28;20058;-81
2022/05/14 07:22:05;;;;;;;8.85;4.72;;;;;;;23.10;44.90;101466.31;4947267;28;20557;-82
2022/05/14 07:24:32;;;;;;;8.73;5.13;;;;;;;23.23;44.86;101497.03;4945187;28;20055;-82
2022/05/14 07:27:03;;;;;;;6.95;4.47;;;;;;;23.13;45.60;101499.28;4947146;29;20079;-81
2022/05/14 07:29:30;;;;;;;7.97;5.15;;;;;;;23.21;46.02;101509.13;4932488;29;20130;-82
2022/05/14 07:31:57;;;;;;;9.40;4.50;;;;;;;22.92;46.39;101474.91;4927899;29;20074;-83
2022/05/14 07:34:25;;;;;;;5.45;4.22;;;;;;;23.03;46.01;101479.81;4928936;29;20525;-82
2022/05/14 07:37:16;;;;;;;11.05;4.55;;;;;;;23.30;46.09;101515.19;4928731;29;20058;-83
2022/05/14 07:39:48;;;;;;;13.10;5.38;;;;;;;22.94;46.63;101464.72;4928021;29;20054;-82
2022/05/14 07:42:21;;;;;;;12.15;5.18;;;;;;;23.04;46.94;101470.66;4928874;29;20406;-83
2022/05/14 07:44:52;;;;;;;9.48;5.10;;;;;;;23.30;47.00;101509.78;4927692;29;20498;-82
2022/05/14 07:47:19;;;;;;;8.30;5.20;;;;;;;23.41;46.62;101512.78;4928108;29;20151;-83
2022/05/14 07:49:49;;;;;;;6.90;5.20;;;;;;;22.81;46.40;101406.72;4927559;29;20061;-83
2022/05/14 07:52:17;;;;;;;10.00;5.15;;;;;;;23.39;46.33;101508.59;4936055;28;20511;-82
2022/05/14 07:54:44;;;;;;;11.85;5.05;;;;;;;23.25;46.87;101505.81;4981875;28;20078;-83
2022/05/14 07:57:11;;;;;;;8.55;4.55;;;;;;;23.18;47.21;101493.22;4966960;28;20235;-83
2022/05/14 07:59:38;;;;;;;8.77;5.70;;;;;;;23.10;47.04;101469.84;4981828;28;20156;-82
2022/05/14 08:02:23;;;;;;;15.05;5.60;;;;;;;22.49;47.74;101369.44;4961148;28;20058;-83
2022/05/14 08:04:50;;;;;;;11.68;4.85;;;;;;;23.29;47.34;101500.00;4944412;28;20542;-83
2022/05/14 08:07:17;;;;;;;8.32;5.55;;;;;;;23.40;47.07;101481.31;4947893;28;20085;-84
2022/05/14 08:09:43;;;;;;;10.73;6.55;;;;;;;23.29;46.66;101434.97;4946311;29;20051;-84
2022/05/14 08:12:11;;;;;;;9.25;5.45;;;;;;;23.54;47.50;101487.63;4946776;28;20497;-84
2022/05/14 08:14:42;;;;;;;8.38;4.65;;;;;;;23.35;46.91;101439.56;4946332;28;20496;-83
2022/05/14 08:17:10;;;;;;;13.45;6.03;;;;;;;23.64;46.72;101498.09;4947070;28;20342;-83
2022/05/14 08:19:37;;;;;;;10.50;5.35;;;;;;;23.25;46.74;101413.72;4946053;28;20047;-84
2022/05/14 08:24:51;;;;;;;6.80;5.22;;;;;;;23.75;46.53;101461.47;4950238;28;20078;-83
2022/05/14 08:27:18;;;;;;;8.57;5.47;;;;;;;23.37;46.29;101378.72;4948564;29;20058;-83
2022/05/14 08:29:47;;;;;;;9.88;5.13;;;;;;;23.54;46.68;101381.91;4964894;28;20476;-84
2022/05/14 08:32:20;;;;;;;14.00;6.10;;;;;;;23.14;45.91;101314.06;4948203;29;20146;-82
2022/05/14 08:34:49;;;;;;;11.15;5.05;;;;;;;23.28;45.60;101324.94;4948375;29;20054;-82
2022/05/14 08:37:16;;;;;;;9.10;4.65;;;;;;;24.25;46.09;101467.47;4950116;28;20478;-83
2022/05/14 08:39:43;;;;;;;9.20;5.18;;;;;;;24.40;46.27;101491.72;4950271;28;20055;-84
2022/05/14 08:42:14;;;;;;;13.88;5.60;;;;;;;24.35;45.59;101467.91;4948615;29;20381;-83
2022/05/14 08:44:45;;;;;;;10.52;5.72;;;;;;;24.48;46.04;101475.25;4949776;28;20122;-83
2022/05/14 08:47:33;;;;;;;8.10;5.60;;;;;;;24.64;45.11;101482.16;4948709;28;20509;-83
2022/05/14 08:50:08;;;;;;;12.27;5.13;;;;;;;24.65;45.59;101479.22;4963732;28;20696;-81
2022/05/14 08:52:36;;;;;;;9.95;5.80;;;;;;;24.77;45.23;101482.16;4945262;28;20055;-83
2022/05/14 08:55:11;;;;;;;6.38;4.55;;;;;;;24.87;44.54;101477.13;4932119;29;20558;-81
2022/05/14 08:57:52;;;;;;;7.80;4.55;;;;;;;24.80;44.81;101481.72;4932207;29;20175;-83
2022/05/14 09:00:19;;;;;;;11.93;5.38;;;;;;;24.76;44.54;101477.78;4930142;29;20123;-83
2022/05/14 09:02:52;;;;;;;12.25;4.70;;;;;;;24.86;45.21;101489.06;4930663;29;20181;-83
2022/05/14 09:05:30;;;;;;;8.48;4.90;;;;;;;25.06;44.83;101488.19;4938345;29;20142;-83
2022/05/14 09:07:57;;;;;;;9.30;5.35;;;;;;;24.93;44.45;101489.06;4948234;29;20402;-83
2022/05/14 09:10:39;;;;;;;12.00;5.38;;;;;;;23.96;44.53;101323.06;4948424;28;20055;-82
2022/05/14 09:13:16;;;;;;;10.98;5.13;;;;;;;24.82;44.78;101457.09;4948583;29;20086;-83
2022/05/14 09:15:57;;;;;;;10.82;4.70;;;;;;;24.69;44.64;101419.94;4964977;28;20058;-84
2022/05/14 09:18:46;;;;;;;15.63;5.50;;;;;;;25.10;44.41;101467.72;4965331;28;20055;-83
2022/05/14 09:21:23;;;;;;;15.82;6.10;;;;;;;25.31;43.98;101489.22;4954422;29;20303;-82
2022/05/14 09:23:57;;;;;;;9.13;5.03;;;;;;;25.58;43.32;101494.56;4962645;28;20055;-82
2022/05/14 09:26:33;;;;;;;19.02;5.35;;;;;;;25.62;43.65;101493.09;4965792;29;20187;-83
2022/05/14 09:29:19;;;;;;;10.75;4.88;;;;;;;25.50;44.29;101454.88;4960562;28;20059;-83
2022/05/14 09:31:53;;;;;;;5.10;4.55;;;;;;;25.43;43.41;101453.22;4942905;29;20506;-83
2022/05/14 09:34:21;;;;;;;10.63;4.65;;;;;;;25.74;43.86;101483.22;4928358;29;20082;-83
2022/05/14 09:36:51;;;;;;;12.82;5.80;;;;;;;25.87;42.96;101493.22;4940341;29;20297;-83
2022/05/14 09:39:19;;;;;;;9.95;5.88;;;;;;;25.95;42.62;101494.91;4947983;29;20505;-83
2022/05/14 09:41:49;;;;;;;14.98;5.05;;;;;;;26.06;42.48;101496.91;4948618;28;20536;-84
2022/05/14 09:44:19;;;;;;;10.18;4.95;;;;;;;25.84;42.32;101460.19;4947475;29;20188;-84
2022/05/14 09:46:46;;;;;;;6.18;4.35;;;;;;;26.32;41.73;101490.47;4949517;28;20084;-83
2022/05/14 09:49:23;;;;;;;6.75;4.22;;;;;;;26.37;41.82;101485.22;4950434;28;20051;-84
2022/05/14 09:52:05;;;;;;;11.40;5.10;;;;;;;25.93;40.92;101388.19;4950592;28;20062;-83
2022/05/14 09:54:43;;;;;;;7.57;4.55;;;;;;;26.63;41.41;101489.66;4967199;28;20050;-83
2022/05/14 09:57:15;;;;;;;12.20;5.20;;;;;;;25.76;41.51;101317.13;4969149;28;20133;-84
2022/05/14 10:00:10;;;;;;;7.28;4.93;;;;;;;27.12;40.16;101476.22;4967286;28;20101;-84
2022/05/14 10:02:58;;;;;;;11.13;4.88;;;;;;;27.38;40.15;101477.88;4966874;28;20516;-85
2022/05/14 10:06:02;;;;;;;9.32;5.00;;;;;;;27.34;39.02;101468.47;4965349;28;20532;-84
2022/05/14 10:08:44;;;;;;;8.50;4.88;;;;;;;27.35;39.60;101466.56;4967819;28;20063;-84
2022/05/14 10:11:31;;;;;;;11.13;4.03;;;;;;;26.97;38.88;101411.19;4967785;28;20055;-83
2022/05/14 10:14:12;;;;;;;4.90;4.10;;;;;;;27.34;38.57;101438.50;4965989;28;20117;-84
2022/05/14 10:16:42;;;;;;;8.20;4.80;;;;;;;27.69;37.87;101462.38;4966280;28;20062;-83
2022/05/14 10:19:21;;;;;;;7.22;4.57;;;;;;;27.79;38.11;101462.66;4966159;28;20313;-82
2022/05/14 10:22:20;;;;;;;6.85;4.50;;;;;;;28.01;38.02;101479.44;4967898;28;20111;-83
2022/05/14 10:27:50;;;;;;;6.70;4.45;;;;;;;28.31;37.89;101443.91;4968632;28;20050;-84
2022/05/14 10:30:24;;;;;;;8.32;4.45;;;;;;;28.51;37.15;101470.09;4966920;28;20050;-84
2022/05/14 10:33:02;;;;;;;7.63;3.78;;;;;;;28.72;36.79;101455.88;4983907;28;20050;-82
2022/05/14 10:35:40;;;;;;;9.20;4.55;;;;;;;28.51;37.09;101410.81;4983859;28;20070;-84
2022/05/14 10:38:14;;;;;;;7.30;3.83;;;;;;;28.68;36.02;101421.06;4968896;28;20039;-83
2022/05/14 10:40:48;;;;;;;11.05;4.68;;;;;;;28.90;35.42;101445.88;4967642;28;20378;-84
2022/05/14 10:43:20;;;;;;;8.35;5.00;;;;;;;28.96;35.78;101444.94;4967006;28;20105;-83
2022/05/14 10:45:49;;;;;;;9.63;4.70;;;;;;;29.14;36.14;101442.09;4968708;28;20134;-83
2022/05/14 10:48:56;;;;;;;5.95;4.30;;;;;;;29.37;36.25;101454.03;4967495;28;20042;-83
2022/05/14 10:51:27;;;;;;;7.47;4.72;;;;;;;29.33;36.19;101417.34;4967450;28;20214;-83
2022/05/14 10:53:55;;;;;;;17.10;5.47;;;;;;;28.26;35.67;101233.56;4983939;28;20059;-84
2022/05/14 10:56:54;;;;;;;8.52;4.50;;;;;;;29.64;35.13;101440.66;4968715;28;20138;-84
2022/05/14 10:59:49;;;;;;;7.22;4.22;;;;;;;29.67;35.77;101412.84;4947801;28;20497;-82
2022/05/14 11:02:28;;;;;;;12.32;4.97;;;;;;;30.05;35.62;101441.44;4965303;28;20062;-85
2022/05/14 11:04:55;;;;;;;9.40;4.55;;;;;;;30.22;35.02;101441.47;4967759;28;20058;-83
2022/05/14 11:07:33;;;;;;;8.88;4.47;;;;;;;30.35;34.89;101430.25;4983349;28;20054;-83
2022/05/14 11:10:45;;;;;;;7.85;4.25;;;;;;;30.41;34.81;101434.72;4967193;28;20125;-83
2022/05/14 11:13:23;;;;;;;8.70;4.65;;;;;;;30.53;34.19;101426.41;4967247;28;20105;-83
2022/05/14 11:16:10;;;;;;;9.68;4.50;;;;;;;30.53;34.29;101417.38;4970068;28;20058;-85
2022/05/14 11:18:53;;;;;;;10.23;4.63;;;;;;;30.59;33.83;101421.84;4971786;28;20086;-85
2022/05/14 11:21:44;;;;;;;9.18;4.32;;;;;;;30.57;34.02;101399.34;4967268;28;20464;-83
2022/05/14 11:24:16;;;;;;;9.70;4.55;;;;;;;30.90;33.28;101409.47;4970724;28;20054;-83
2022/05/14 11:26:54;;;;;;;8.32;4.68;;;;;;;30.92;34.14;101406.47;4968028;28;20047;-83
2022/05/14 11:29:27;;;;;;;9.32;4.82;;;;;;;31.06;33.74;101388.56;4982589;28;20051;-84
2022/05/14 11:32:13;;;;;;;9.18;4.15;;;;;;;31.36;33.07;101415.53;4966608;28;20058;-84
2022/05/14 11:34:55;;;;;;;9.75;4.32;;;;;;;31.69;32.49;101411.81;4982278;28;20050;-84
2022/05/14 11:37:31;;;;;;;10.98;4.43;;;;;;;31.73;32.26;101393.75;4966815;28;20125;-83
2022/05/14 11:40:23;;;;;;;8.00;4.35;;;;;;;31.95;32.45;101403.06;4966485;28;20046;-83
2022/05/14 11:43:12;;;;;;;5.22;4.03;;;;;;;31.75;32.41;101356.97;4966866;28;20050;-84
2022/05/14 11:45:49;;;;;;;6.55;4.30;;;;;;;32.04;32.80;101380.38;4958549;28;20139;-83
2022/05/14 11:48:27;;;;;;;6.60;4.38;;;;;;;32.10;33.33;101368.31;4982972;28;20057;-82
2022/05/14 11:51:17;;;;;;;8.95;4.57;;;;;;;32.36;32.77;101385.00;4982632;28;20117;-83
2022/05/14 11:53:55;;;;;;;10.68;4.22;;;;;;;32.35;32.43;101347.63;4967579;28;20137;-84
2022/05/14 11:56:30;;;;;;;16.10;4.97;;;;;;;32.75;32.47;101385.56;4966375;28;20093;-83
2022/05/14 11:59:00;;;;;;;6.72;4.25;;;;;;;32.91;32.14;101391.13;4965761;28;20472;-84
2022/05/14 12:01:36;;;;;;;12.77;4.70;;;;;;;33.06;32.11;101395.91;4966623;28;20050;-84
2022/05/14 12:04:12;;;;;;;6.00;4.32;;;;;;;32.07;31.54;101211.50;4967896;28;20057;-85
2022/05/14 12:06:57;;;;;;;4.95;4.25;;;;;;;33.09;31.14;101356.88;4982539;28;21072;-84